sensor_id;sensor_type;location;lat;lon;timestamp;P1;durP1;ratioP1;P2;durP2;ratioP2
30818;SDS011;17546;42.674;23.284;2023-05-07T00:00:42;26.83;;;11.75;;
30818;SDS011;17546;42.674;23.284;2023-05-07T00:03:15;18.15;;;10.60;;
30818;SDS011;17546;42.674;23.284;2023-05-07T00:05:40;17.25;;;10.45;;
30818;SDS011;17546;42.674;23.284;2023-05-07T00:08:06;19.75;;;9.60;;
30818;SDS011;17546;42.674;23.284;2023-05-07T00:10:32;17.02;;;9.75;;
30818;SDS011;17546;42.674;23.284;2023-05-07T00:12:58;20.08;;;10.07;;
30818;SDS011;17546;42.674;23.284;2023-05-07T00:15:24;22.42;;;9.85;;
30818;SDS011;17546;42.674;23.284;2023-05-07T00:17:50;15.82;;;9.70;;
30818;SDS011;17546;42.674;23.284;2023-05-07T00:20:15;18.92;;;9.85;;
30818;SDS011;17546;42.674;23.284;2023-05-07T00:22:41;15.95;;;9.85;;
30818;SDS011;17546;42.674;23.284;2023-05-07T00:25:06;16.50;;;9.88;;
30818;SDS011;17546;42.674;23.284;2023-05-07T00:27:32;16.92;;;9.85;;
30818;SDS011;17546;42.674;23.284;2023-05-07T00:30:03;16.15;;;9.57;;
30818;SDS011;17546;42.674;23.284;2023-05-07T00:32:29;20.85;;;9.90;;
30818;SDS011;17546;42.674;23.284;2023-05-07T00:34:54;19.23;;;9.27;;
30818;SDS011;17546;42.674;23.284;2023-05-07T00:37:20;15.88;;;9.70;;
30818;SDS011;17546;42.674;23.284;2023-05-07T00:39:46;18.10;;;9.45;;
30818;SDS011;17546;42.674;23.284;2023-05-07T00:42:11;21.42;;;9.45;;
30818;SDS011;17546;42.674;23.284;2023-05-07T00:44:36;15.57;;;9.43;;
30818;SDS011;17546;42.674;23.284;2023-05-07T00:47:02;21.30;;;9.70;;
30818;SDS011;17546;42.674;23.284;2023-05-07T00:49:39;23.20;;;10.07;;
30818;SDS011;17546;42.674;23.284;2023-05-07T00:52:09;23.60;;;10.45;;
30818;SDS011;17546;42.674;23.284;2023-05-07T00:54:37;18.50;;;9.73;;
30818;SDS011;17546;42.674;23.284;2023-05-07T00:57:05;23.88;;;10.82;;
30818;SDS011;17546;42.674;23.284;2023-05-07T00:59:31;16.92;;;9.02;;
30818;SDS011;17546;42.674;23.284;2023-05-07T01:01:57;19.13;;;9.38;;
30818;SDS011;17546;42.674;23.284;2023-05-07T01:04:23;21.80;;;9.65;;
30818;SDS011;17546;42.674;23.284;2023-05-07T01:06:49;15.82;;;8.50;;
30818;SDS011;17546;42.674;23.284;2023-05-07T01:09:15;17.20;;;9.30;;
30818;SDS011;17546;42.674;23.284;2023-05-07T01:11:41;15.65;;;8.23;;
30818;SDS011;17546;42.674;23.284;2023-05-07T01:14:09;12.18;;;7.22;;
30818;SDS011;17546;42.674;23.284;2023-05-07T01:16:35;13.27;;;7.68;;
30818;SDS011;17546;42.674;23.284;2023-05-07T01:19:06;15.65;;;7.82;;
30818;SDS011;17546;42.674;23.284;2023-05-07T01:21:37;15.27;;;8.10;;
30818;SDS011;17546;42.674;23.284;2023-05-07T01:24:04;16.67;;;7.70;;
30818;SDS011;17546;42.674;23.284;2023-05-07T01:26:30;13.85;;;8.40;;
30818;SDS011;17546;42.674;23.284;2023-05-07T01:28:55;16.60;;;8.25;;
30818;SDS011;17546;42.674;23.284;2023-05-07T01:31:21;18.13;;;8.43;;
30818;SDS011;17546;42.674;23.284;2023-05-07T01:33:48;15.90;;;8.10;;
30818;SDS011;17546;42.674;23.284;2023-05-07T01:36:15;15.80;;;8.48;;
30818;SDS011;17546;42.674;23.284;2023-05-07T01:38:44;14.95;;;8.48;;
30818;SDS011;17546;42.674;23.284;2023-05-07T01:41:11;20.27;;;9.45;;
30818;SDS011;17546;42.674;23.284;2023-05-07T01:43:37;17.77;;;9.10;;
30818;SDS011;17546;42.674;23.284;2023-05-07T01:46:11;18.40;;;9.60;;
30818;SDS011;17546;42.674;23.284;2023-05-07T01:48:38;18.15;;;8.93;;
30818;SDS011;17546;42.674;23.284;2023-05-07T01:51:04;16.67;;;8.82;;
30818;SDS011;17546;42.674;23.284;2023-05-07T01:53:35;15.98;;;8.50;;
30818;SDS011;17546;42.674;23.284;2023-05-07T01:56:07;14.23;;;8.70;;
30818;SDS011;17546;42.674;23.284;2023-05-07T01:58:32;16.63;;;7.78;;
30818;SDS011;17546;42.674;23.284;2023-05-07T02:00:58;15.70;;;8.27;;
30818;SDS011;17546;42.674;23.284;2023-05-07T02:03:25;11.60;;;7.32;;
30818;SDS011;17546;42.674;23.284;2023-05-07T02:05:50;16.55;;;7.38;;
30818;SDS011;17546;42.674;23.284;2023-05-07T02:08:16;14.07;;;7.25;;
30818;SDS011;17546;42.674;23.284;2023-05-07T02:10:41;12.02;;;7.35;;
30818;SDS011;17546;42.674;23.284;2023-05-07T02:13:08;17.35;;;7.00;;
30818;SDS011;17546;42.674;23.284;2023-05-07T02:15:33;13.40;;;6.75;;
30818;SDS011;17546;42.674;23.284;2023-05-07T02:17:59;14.10;;;7.15;;
30818;SDS011;17546;42.674;23.284;2023-05-07T02:20:25;12.60;;;7.65;;
30818;SDS011;17546;42.674;23.284;2023-05-07T02:22:51;12.90;;;7.50;;
30818;SDS011;17546;42.674;23.284;2023-05-07T02:25:16;12.52;;;7.15;;
30818;SDS011;17546;42.674;23.284;2023-05-07T02:27:41;13.27;;;6.82;;
30818;SDS011;17546;42.674;23.284;2023-05-07T02:30:07;16.13;;;7.15;;
30818;SDS011;17546;42.674;23.284;2023-05-07T02:32:32;11.30;;;6.82;;
30818;SDS011;17546;42.674;23.284;2023-05-07T02:34:58;18.25;;;7.45;;
30818;SDS011;17546;42.674;23.284;2023-05-07T02:37:25;12.30;;;6.85;;
30818;SDS011;17546;42.674;23.284;2023-05-07T02:39:50;15.85;;;7.70;;
30818;SDS011;17546;42.674;23.284;2023-05-07T02:42:16;13.07;;;8.35;;
30818;SDS011;17546;42.674;23.284;2023-05-07T02:44:41;13.38;;;8.13;;
30818;SDS011;17546;42.674;23.284;2023-05-07T02:47:06;17.98;;;8.50;;
30818;SDS011;17546;42.674;23.284;2023-05-07T02:49:35;17.52;;;8.73;;
30818;SDS011;17546;42.674;23.284;2023-05-07T02:52:00;22.10;;;9.27;;
30818;SDS011;17546;42.674;23.284;2023-05-07T02:54:26;19.20;;;8.52;;
30818;SDS011;17546;42.674;23.284;2023-05-07T02:56:51;18.75;;;8.48;;
30818;SDS011;17546;42.674;23.284;2023-05-07T02:59:16;16.63;;;9.18;;
30818;SDS011;17546;42.674;23.284;2023-05-07T03:01:42;17.02;;;9.38;;
30818;SDS011;17546;42.674;23.284;2023-05-07T03:04:13;19.17;;;9.25;;
30818;SDS011;17546;42.674;23.284;2023-05-07T03:06:39;16.55;;;9.20;;
30818;SDS011;17546;42.674;23.284;2023-05-07T03:09:04;14.65;;;9.10;;
30818;SDS011;17546;42.674;23.284;2023-05-07T03:11:29;22.23;;;9.38;;
30818;SDS011;17546;42.674;23.284;2023-05-07T03:13:55;15.88;;;9.93;;
30818;SDS011;17546;42.674;23.284;2023-05-07T03:16:20;17.27;;;9.50;;
30818;SDS011;17546;42.674;23.284;2023-05-07T03:18:46;20.10;;;10.32;;
30818;SDS011;17546;42.674;23.284;2023-05-07T03:21:11;15.75;;;9.32;;
30818;SDS011;17546;42.674;23.284;2023-05-07T03:23:37;17.70;;;9.32;;
30818;SDS011;17546;42.674;23.284;2023-05-07T03:26:02;18.48;;;9.55;;
30818;SDS011;17546;42.674;23.284;2023-05-07T03:28:28;18.63;;;9.60;;
30818;SDS011;17546;42.674;23.284;2023-05-07T03:30:53;15.30;;;9.32;;
30818;SDS011;17546;42.674;23.284;2023-05-07T03:33:19;13.85;;;8.52;;
30818;SDS011;17546;42.674;23.284;2023-05-07T03:35:52;18.00;;;9.45;;
30818;SDS011;17546;42.674;23.284;2023-05-07T03:38:17;15.88;;;8.77;;
30818;SDS011;17546;42.674;23.284;2023-05-07T03:40:43;16.63;;;8.82;;
30818;SDS011;17546;42.674;23.284;2023-05-07T03:43:08;18.65;;;8.80;;
30818;SDS011;17546;42.674;23.284;2023-05-07T03:45:34;18.73;;;8.93;;
30818;SDS011;17546;42.674;23.284;2023-05-07T03:47:59;14.75;;;8.27;;
30818;SDS011;17546;42.674;23.284;2023-05-07T03:50:26;16.67;;;8.93;;
30818;SDS011;17546;42.674;23.284;2023-05-07T03:52:51;16.08;;;8.77;;
30818;SDS011;17546;42.674;23.284;2023-05-07T03:55:17;13.45;;;8.02;;
30818;SDS011;17546;42.674;23.284;2023-05-07T03:57:43;16.85;;;9.02;;
30818;SDS011;17546;42.674;23.284;2023-05-07T04:00:08;13.32;;;8.30;;
30818;SDS011;17546;42.674;23.284;2023-05-07T04:02:34;15.75;;;7.95;;
30818;SDS011;17546;42.674;23.284;2023-05-07T04:05:00;13.73;;;8.48;;
30818;SDS011;17546;42.674;23.284;2023-05-07T04:07:25;11.98;;;7.47;;
30818;SDS011;17546;42.674;23.284;2023-05-07T04:09:50;26.35;;;8.98;;
30818;SDS011;17546;42.674;23.284;2023-05-07T04:12:16;13.55;;;8.13;;
30818;SDS011;17546;42.674;23.284;2023-05-07T04:14:41;16.95;;;7.75;;
30818;SDS011;17546;42.674;23.284;2023-05-07T04:17:07;14.93;;;8.20;;
30818;SDS011;17546;42.674;23.284;2023-05-07T04:19:34;14.00;;;8.18;;
30818;SDS011;17546;42.674;23.284;2023-05-07T04:22:00;16.35;;;9.23;;
30818;SDS011;17546;42.674;23.284;2023-05-07T04:24:25;18.65;;;9.73;;
30818;SDS011;17546;42.674;23.284;2023-05-07T04:26:51;19.92;;;9.73;;
30818;SDS011;17546;42.674;23.284;2023-05-07T04:29:19;19.92;;;10.30;;
30818;SDS011;17546;42.674;23.284;2023-05-07T04:31:44;23.65;;;10.10;;
30818;SDS011;17546;42.674;23.284;2023-05-07T04:34:10;16.30;;;9.93;;
30818;SDS011;17546;42.674;23.284;2023-05-07T04:36:38;17.25;;;9.70;;
30818;SDS011;17546;42.674;23.284;2023-05-07T04:39:03;16.50;;;10.15;;
30818;SDS011;17546;42.674;23.284;2023-05-07T04:41:29;16.30;;;9.60;;
30818;SDS011;17546;42.674;23.284;2023-05-07T04:43:55;20.48;;;9.80;;
30818;SDS011;17546;42.674;23.284;2023-05-07T04:46:22;16.10;;;10.18;;
30818;SDS011;17546;42.674;23.284;2023-05-07T04:48:49;18.23;;;10.00;;
30818;SDS011;17546;42.674;23.284;2023-05-07T04:51:14;18.10;;;10.73;;
30818;SDS011;17546;42.674;23.284;2023-05-07T04:53:40;15.30;;;10.05;;
30818;SDS011;17546;42.674;23.284;2023-05-07T04:56:05;17.05;;;10.30;;
30818;SDS011;17546;42.674;23.284;2023-05-07T04:58:31;19.42;;;11.18;;
30818;SDS011;17546;42.674;23.284;2023-05-07T05:00:57;22.88;;;10.85;;
30818;SDS011;17546;42.674;23.284;2023-05-07T05:03:23;16.33;;;11.43;;
30818;SDS011;17546;42.674;23.284;2023-05-07T05:05:50;20.85;;;10.73;;
30818;SDS011;17546;42.674;23.284;2023-05-07T05:08:17;20.48;;;11.05;;
30818;SDS011;17546;42.674;23.284;2023-05-07T05:10:42;19.85;;;11.52;;
30818;SDS011;17546;42.674;23.284;2023-05-07T05:13:08;23.08;;;10.88;;
30818;SDS011;17546;42.674;23.284;2023-05-07T05:15:34;23.95;;;10.88;;
30818;SDS011;17546;42.674;23.284;2023-05-07T05:17:59;20.33;;;11.05;;
30818;SDS011;17546;42.674;23.284;2023-05-07T05:20:25;19.15;;;11.02;;
30818;SDS011;17546;42.674;23.284;2023-05-07T05:22:55;19.27;;;11.23;;
30818;SDS011;17546;42.674;23.284;2023-05-07T05:25:20;18.58;;;10.88;;
30818;SDS011;17546;42.674;23.284;2023-05-07T05:27:46;30.33;;;10.70;;
30818;SDS011;17546;42.674;23.284;2023-05-07T05:30:11;18.90;;;10.40;;
30818;SDS011;17546;42.674;23.284;2023-05-07T05:32:37;15.77;;;10.27;;
30818;SDS011;17546;42.674;23.284;2023-05-07T05:35:04;24.10;;;10.00;;
30818;SDS011;17546;42.674;23.284;2023-05-07T05:37:33;15.88;;;10.40;;
30818;SDS011;17546;42.674;23.284;2023-05-07T05:39:58;22.88;;;10.07;;
30818;SDS011;17546;42.674;23.284;2023-05-07T05:42:24;18.58;;;11.32;;
30818;SDS011;17546;42.674;23.284;2023-05-07T05:44:49;17.08;;;10.57;;
30818;SDS011;17546;42.674;23.284;2023-05-07T05:47:16;16.88;;;9.98;;
30818;SDS011;17546;42.674;23.284;2023-05-07T05:49:41;17.70;;;9.95;;
30818;SDS011;17546;42.674;23.284;2023-05-07T05:52:08;22.77;;;10.50;;
30818;SDS011;17546;42.674;23.284;2023-05-07T05:54:33;17.65;;;10.52;;
30818;SDS011;17546;42.674;23.284;2023-05-07T05:57:00;22.80;;;10.95;;
30818;SDS011;17546;42.674;23.284;2023-05-07T05:59:28;15.82;;;10.52;;
30818;SDS011;17546;42.674;23.284;2023-05-07T06:01:54;32.85;;;12.75;;
30818;SDS011;17546;42.674;23.284;2023-05-07T06:04:20;18.48;;;9.45;;
30818;SDS011;17546;42.674;23.284;2023-05-07T06:06:45;21.10;;;10.05;;
30818;SDS011;17546;42.674;23.284;2023-05-07T06:09:12;18.58;;;9.73;;
30818;SDS011;17546;42.674;23.284;2023-05-07T06:11:37;15.20;;;9.68;;
30818;SDS011;17546;42.674;23.284;2023-05-07T06:14:03;17.10;;;9.77;;
30818;SDS011;17546;42.674;23.284;2023-05-07T06:16:28;13.95;;;9.68;;
30818;SDS011;17546;42.674;23.284;2023-05-07T06:18:54;15.85;;;10.52;;
30818;SDS011;17546;42.674;23.284;2023-05-07T06:21:19;17.90;;;9.25;;
30818;SDS011;17546;42.674;23.284;2023-05-07T06:23:45;16.77;;;9.73;;
30818;SDS011;17546;42.674;23.284;2023-05-07T06:26:10;16.40;;;10.23;;
30818;SDS011;17546;42.674;23.284;2023-05-07T06:28:35;17.92;;;9.88;;
30818;SDS011;17546;42.674;23.284;2023-05-07T06:31:10;16.02;;;9.38;;
30818;SDS011;17546;42.674;23.284;2023-05-07T06:33:37;18.17;;;9.85;;
30818;SDS011;17546;42.674;23.284;2023-05-07T06:36:02;19.80;;;9.90;;
30818;SDS011;17546;42.674;23.284;2023-05-07T06:38:28;19.48;;;10.20;;
30818;SDS011;17546;42.674;23.284;2023-05-07T06:40:53;15.90;;;9.45;;
30818;SDS011;17546;42.674;23.284;2023-05-07T06:43:20;19.15;;;9.60;;
30818;SDS011;17546;42.674;23.284;2023-05-07T06:45:48;19.75;;;10.15;;
30818;SDS011;17546;42.674;23.284;2023-05-07T06:48:13;18.25;;;9.80;;
30818;SDS011;17546;42.674;23.284;2023-05-07T06:50:39;13.40;;;8.80;;
30818;SDS011;17546;42.674;23.284;2023-05-07T06:53:12;21.23;;;9.32;;
30818;SDS011;17546;42.674;23.284;2023-05-07T06:55:37;24.13;;;9.25;;
30818;SDS011;17546;42.674;23.284;2023-05-07T06:58:03;17.77;;;9.00;;
30818;SDS011;17546;42.674;23.284;2023-05-07T07:00:29;22.70;;;8.82;;
30818;SDS011;17546;42.674;23.284;2023-05-07T07:02:55;18.42;;;8.30;;
30818;SDS011;17546;42.674;23.284;2023-05-07T07:05:21;15.77;;;7.65;;
30818;SDS011;17546;42.674;23.284;2023-05-07T07:07:46;14.40;;;7.65;;
30818;SDS011;17546;42.674;23.284;2023-05-07T07:10:18;18.63;;;8.07;;
30818;SDS011;17546;42.674;23.284;2023-05-07T07:12:44;19.10;;;7.78;;
30818;SDS011;17546;42.674;23.284;2023-05-07T07:15:10;15.65;;;8.80;;
30818;SDS011;17546;42.674;23.284;2023-05-07T07:17:39;11.48;;;7.25;;
30818;SDS011;17546;42.674;23.284;2023-05-07T07:20:04;12.15;;;7.10;;
30818;SDS011;17546;42.674;23.284;2023-05-07T07:22:30;9.55;;;6.30;;
30818;SDS011;17546;42.674;23.284;2023-05-07T07:24:56;13.88;;;7.05;;
30818;SDS011;17546;42.674;23.284;2023-05-07T07:27:21;15.00;;;6.78;;
30818;SDS011;17546;42.674;23.284;2023-05-07T07:29:47;11.70;;;6.57;;
30818;SDS011;17546;42.674;23.284;2023-05-07T07:32:15;11.23;;;6.07;;
30818;SDS011;17546;42.674;23.284;2023-05-07T07:34:41;15.35;;;5.80;;
30818;SDS011;17546;42.674;23.284;2023-05-07T07:37:06;11.15;;;5.75;;
30818;SDS011;17546;42.674;23.284;2023-05-07T07:39:32;11.18;;;5.30;;
30818;SDS011;17546;42.674;23.284;2023-05-07T07:41:58;14.38;;;5.53;;
30818;SDS011;17546;42.674;23.284;2023-05-07T07:44:24;16.45;;;5.72;;
30818;SDS011;17546;42.674;23.284;2023-05-07T07:46:50;12.40;;;6.72;;
30818;SDS011;17546;42.674;23.284;2023-05-07T07:49:15;12.07;;;6.65;;
30818;SDS011;17546;42.674;23.284;2023-05-07T07:51:41;9.93;;;5.78;;
30818;SDS011;17546;42.674;23.284;2023-05-07T07:54:06;14.48;;;6.47;;
30818;SDS011;17546;42.674;23.284;2023-05-07T07:56:32;20.17;;;7.88;;
30818;SDS011;17546;42.674;23.284;2023-05-07T07:58:58;12.75;;;7.53;;
30818;SDS011;17546;42.674;23.284;2023-05-07T08:01:24;14.93;;;7.38;;
30818;SDS011;17546;42.674;23.284;2023-05-07T08:03:49;12.80;;;6.55;;
30818;SDS011;17546;42.674;23.284;2023-05-07T08:06:15;19.75;;;6.93;;
30818;SDS011;17546;42.674;23.284;2023-05-07T08:08:40;11.63;;;6.47;;
30818;SDS011;17546;42.674;23.284;2023-05-07T08:11:06;13.95;;;5.97;;
30818;SDS011;17546;42.674;23.284;2023-05-07T08:13:31;11.38;;;5.43;;
30818;SDS011;17546;42.674;23.284;2023-05-07T08:15:57;11.57;;;5.75;;
30818;SDS011;17546;42.674;23.284;2023-05-07T08:18:22;11.75;;;5.43;;
30818;SDS011;17546;42.674;23.284;2023-05-07T08:20:49;8.70;;;5.20;;
30818;SDS011;17546;42.674;23.284;2023-05-07T08:23:15;19.35;;;5.28;;
30818;SDS011;17546;42.674;23.284;2023-05-07T08:25:40;8.75;;;5.60;;
30818;SDS011;17546;42.674;23.284;2023-05-07T08:28:07;11.55;;;6.07;;
30818;SDS011;17546;42.674;23.284;2023-05-07T08:30:33;14.57;;;5.80;;
30818;SDS011;17546;42.674;23.284;2023-05-07T08:32:58;9.82;;;5.00;;
30818;SDS011;17546;42.674;23.284;2023-05-07T08:35:25;13.07;;;6.30;;
30818;SDS011;17546;42.674;23.284;2023-05-07T08:37:52;14.43;;;7.57;;
30818;SDS011;17546;42.674;23.284;2023-05-07T08:40:17;11.15;;;6.72;;
30818;SDS011;17546;42.674;23.284;2023-05-07T08:42:43;11.07;;;5.80;;
30818;SDS011;17546;42.674;23.284;2023-05-07T08:45:10;15.27;;;6.40;;
30818;SDS011;17546;42.674;23.284;2023-05-07T08:47:43;14.43;;;5.90;;
30818;SDS011;17546;42.674;23.284;2023-05-07T08:50:10;13.65;;;5.95;;
30818;SDS011;17546;42.674;23.284;2023-05-07T08:52:36;13.93;;;6.50;;
30818;SDS011;17546;42.674;23.284;2023-05-07T08:55:02;11.10;;;6.95;;
30818;SDS011;17546;42.674;23.284;2023-05-07T08:57:28;12.20;;;6.43;;
30818;SDS011;17546;42.674;23.284;2023-05-07T08:59:53;16.40;;;6.25;;
30818;SDS011;17546;42.674;23.284;2023-05-07T09:02:19;11.82;;;7.03;;
30818;SDS011;17546;42.674;23.284;2023-05-07T09:04:46;11.27;;;6.47;;
30818;SDS011;17546;42.674;23.284;2023-05-07T09:07:21;9.55;;;5.95;;
30818;SDS011;17546;42.674;23.284;2023-05-07T09:09:47;13.13;;;6.25;;
30818;SDS011;17546;42.674;23.284;2023-05-07T09:12:12;10.20;;;5.65;;
30818;SDS011;17546;42.674;23.284;2023-05-07T09:14:38;10.88;;;5.80;;
30818;SDS011;17546;42.674;23.284;2023-05-07T09:17:04;11.25;;;5.78;;
30818;SDS011;17546;42.674;23.284;2023-05-07T09:19:30;9.50;;;5.82;;
30818;SDS011;17546;42.674;23.284;2023-05-07T09:22:02;7.00;;;5.13;;
30818;SDS011;17546;42.674;23.284;2023-05-07T09:24:28;10.55;;;5.68;;
30818;SDS011;17546;42.674;23.284;2023-05-07T09:26:58;13.18;;;5.40;;
30818;SDS011;17546;42.674;23.284;2023-05-07T09:29:25;9.98;;;5.22;;
30818;SDS011;17546;42.674;23.284;2023-05-07T09:31:50;10.40;;;5.15;;
30818;SDS011;17546;42.674;23.284;2023-05-07T09:34:16;9.75;;;4.60;;
30818;SDS011;17546;42.674;23.284;2023-05-07T09:36:41;9.25;;;4.35;;
30818;SDS011;17546;42.674;23.284;2023-05-07T09:39:07;9.63;;;4.28;;
30818;SDS011;17546;42.674;23.284;2023-05-07T09:41:32;8.63;;;4.68;;
30818;SDS011;17546;42.674;23.284;2023-05-07T09:44:07;12.25;;;4.50;;
30818;SDS011;17546;42.674;23.284;2023-05-07T09:46:34;8.43;;;4.55;;
30818;SDS011;17546;42.674;23.284;2023-05-07T09:49:03;9.57;;;4.40;;
30818;SDS011;17546;42.674;23.284;2023-05-07T09:51:38;6.30;;;3.70;;
30818;SDS011;17546;42.674;23.284;2023-05-07T09:54:08;6.70;;;4.40;;
30818;SDS011;17546;42.674;23.284;2023-05-07T09:56:35;7.03;;;4.55;;
30818;SDS011;17546;42.674;23.284;2023-05-07T09:59:02;10.30;;;4.50;;
30818;SDS011;17546;42.674;23.284;2023-05-07T10:01:29;9.30;;;4.20;;
30818;SDS011;17546;42.674;23.284;2023-05-07T10:03:56;8.80;;;5.00;;
30818;SDS011;17546;42.674;23.284;2023-05-07T10:06:23;14.13;;;5.13;;
30818;SDS011;17546;42.674;23.284;2023-05-07T10:08:50;11.15;;;4.97;;
30818;SDS011;17546;42.674;23.284;2023-05-07T10:11:17;15.18;;;4.95;;
30818;SDS011;17546;42.674;23.284;2023-05-07T10:13:43;8.02;;;5.07;;
30818;SDS011;17546;42.674;23.284;2023-05-07T10:16:11;8.95;;;4.63;;
30818;SDS011;17546;42.674;23.284;2023-05-07T10:18:37;10.45;;;4.40;;
30818;SDS011;17546;42.674;23.284;2023-05-07T10:21:07;13.98;;;4.60;;
30818;SDS011;17546;42.674;23.284;2023-05-07T10:23:36;10.70;;;4.47;;
30818;SDS011;17546;42.674;23.284;2023-05-07T10:26:04;9.90;;;4.22;;
30818;SDS011;17546;42.674;23.284;2023-05-07T10:28:32;8.93;;;3.95;;
30818;SDS011;17546;42.674;23.284;2023-05-07T10:33:58;5.88;;;3.55;;
30818;SDS011;17546;42.674;23.284;2023-05-07T10:36:24;6.65;;;3.53;;
30818;SDS011;17546;42.674;23.284;2023-05-07T10:38:51;8.98;;;4.10;;
30818;SDS011;17546;42.674;23.284;2023-05-07T10:41:17;5.78;;;3.88;;
30818;SDS011;17546;42.674;23.284;2023-05-07T10:43:44;6.07;;;3.72;;
30818;SDS011;17546;42.674;23.284;2023-05-07T10:46:20;8.75;;;3.80;;
30818;SDS011;17546;42.674;23.284;2023-05-07T10:51:28;5.05;;;3.30;;
30818;SDS011;17546;42.674;23.284;2023-05-07T10:56:42;7.90;;;4.05;;
30818;SDS011;17546;42.674;23.284;2023-05-07T10:59:50;6.25;;;3.88;;
30818;SDS011;17546;42.674;23.284;2023-05-07T11:01:59;6.35;;;3.80;;
30818;SDS011;17546;42.674;23.284;2023-05-07T11:04:29;10.60;;;4.07;;
30818;SDS011;17546;42.674;23.284;2023-05-07T11:15:12;5.88;;;3.60;;
30818;SDS011;17546;42.674;23.284;2023-05-07T11:17:56;5.63;;;3.55;;
30818;SDS011;17546;42.674;23.284;2023-05-07T11:26:02;8.48;;;4.00;;
30818;SDS011;17546;42.674;23.284;2023-05-07T11:28:28;8.35;;;3.35;;
30818;SDS011;17546;42.674;23.284;2023-05-07T11:30:54;7.53;;;3.47;;
30818;SDS011;17546;42.674;23.284;2023-05-07T11:33:22;6.68;;;3.30;;
30818;SDS011;17546;42.674;23.284;2023-05-07T11:35:48;8.15;;;3.38;;
30818;SDS011;17546;42.674;23.284;2023-05-07T11:38:15;11.10;;;3.70;;
30818;SDS011;17546;42.674;23.284;2023-05-07T11:40:49;11.80;;;2.97;;
30818;SDS011;17546;42.674;23.284;2023-05-07T11:43:18;4.57;;;3.03;;
30818;SDS011;17546;42.674;23.284;2023-05-07T11:45:45;17.10;;;3.17;;
30818;SDS011;17546;42.674;23.284;2023-05-07T11:48:12;5.28;;;3.42;;
30818;SDS011;17546;42.674;23.284;2023-05-07T11:50:49;7.80;;;3.13;;
30818;SDS011;17546;42.674;23.284;2023-05-07T11:53:19;6.07;;;2.97;;
30818;SDS011;17546;42.674;23.284;2023-05-07T11:55:45;3.42;;;2.90;;
30818;SDS011;17546;42.674;23.284;2023-05-07T11:58:12;8.55;;;3.10;;
30818;SDS011;17546;42.674;23.284;2023-05-07T12:00:48;5.20;;;3.30;;
30818;SDS011;17546;42.674;23.284;2023-05-07T12:03:19;4.18;;;2.80;;
30818;SDS011;17546;42.674;23.284;2023-05-07T12:05:45;9.25;;;2.92;;
30818;SDS011;17546;42.674;23.284;2023-05-07T12:08:18;5.05;;;2.90;;
30818;SDS011;17546;42.674;23.284;2023-05-07T12:10:45;6.38;;;2.90;;
30818;SDS011;17546;42.674;23.284;2023-05-07T12:13:15;8.93;;;2.85;;
30818;SDS011;17546;42.674;23.284;2023-05-07T12:15:42;5.85;;;2.83;;
30818;SDS011;17546;42.674;23.284;2023-05-07T12:18:07;8.15;;;3.22;;
30818;SDS011;17546;42.674;23.284;2023-05-07T12:20:34;3.53;;;2.78;;
30818;SDS011;17546;42.674;23.284;2023-05-07T12:23:00;7.05;;;3.10;;
30818;SDS011;17546;42.674;23.284;2023-05-07T12:25:26;7.05;;;2.88;;
30818;SDS011;17546;42.674;23.284;2023-05-07T12:27:55;4.22;;;2.65;;
30818;SDS011;17546;42.674;23.284;2023-05-07T12:30:22;6.07;;;2.72;;
30818;SDS011;17546;42.674;23.284;2023-05-07T12:32:48;4.43;;;2.80;;
30818;SDS011;17546;42.674;23.284;2023-05-07T12:35:25;6.78;;;2.97;;
30818;SDS011;17546;42.674;23.284;2023-05-07T12:37:55;3.90;;;2.75;;
30818;SDS011;17546;42.674;23.284;2023-05-07T12:40:21;6.63;;;3.03;;
30818;SDS011;17546;42.674;23.284;2023-05-07T12:42:46;4.35;;;2.55;;
30818;SDS011;17546;42.674;23.284;2023-05-07T12:45:12;5.30;;;3.00;;
30818;SDS011;17546;42.674;23.284;2023-05-07T12:47:43;2.90;;;2.58;;
30818;SDS011;17546;42.674;23.284;2023-05-07T12:50:12;3.78;;;2.60;;
30818;SDS011;17546;42.674;23.284;2023-05-07T12:52:41;4.53;;;2.80;;
30818;SDS011;17546;42.674;23.284;2023-05-07T12:55:08;6.97;;;2.78;;
30818;SDS011;17546;42.674;23.284;2023-05-07T12:57:37;5.57;;;2.80;;
30818;SDS011;17546;42.674;23.284;2023-05-07T13:00:04;3.03;;;2.58;;
30818;SDS011;17546;42.674;23.284;2023-05-07T13:02:33;6.20;;;2.60;;
30818;SDS011;17546;42.674;23.284;2023-05-07T13:05:02;9.15;;;2.55;;
30818;SDS011;17546;42.674;23.284;2023-05-07T13:07:27;5.63;;;2.83;;
30818;SDS011;17546;42.674;23.284;2023-05-07T13:09:53;7.72;;;2.70;;
30818;SDS011;17546;42.674;23.284;2023-05-07T13:12:18;5.35;;;2.25;;
30818;SDS011;17546;42.674;23.284;2023-05-07T13:14:43;3.63;;;2.47;;
30818;SDS011;17546;42.674;23.284;2023-05-07T13:17:09;5.35;;;2.50;;
30818;SDS011;17546;42.674;23.284;2023-05-07T13:19:34;8.63;;;2.70;;
30818;SDS011;17546;42.674;23.284;2023-05-07T13:22:02;8.18;;;3.30;;
30818;SDS011;17546;42.674;23.284;2023-05-07T13:24:27;2.92;;;2.40;;
30818;SDS011;17546;42.674;23.284;2023-05-07T13:26:53;9.77;;;2.75;;
30818;SDS011;17546;42.674;23.284;2023-05-07T13:29:18;5.53;;;2.50;;
30818;SDS011;17546;42.674;23.284;2023-05-07T13:31:44;4.43;;;2.50;;
30818;SDS011;17546;42.674;23.284;2023-05-07T13:34:09;7.72;;;3.08;;
30818;SDS011;17546;42.674;23.284;2023-05-07T13:36:35;7.68;;;3.08;;
30818;SDS011;17546;42.674;23.284;2023-05-07T13:39:04;5.63;;;2.63;;
30818;SDS011;17546;42.674;23.284;2023-05-07T13:41:31;5.20;;;2.30;;
30818;SDS011;17546;42.674;23.284;2023-05-07T13:43:56;4.90;;;2.63;;
30818;SDS011;17546;42.674;23.284;2023-05-07T13:46:21;4.35;;;2.45;;
30818;SDS011;17546;42.674;23.284;2023-05-07T13:48:47;6.60;;;2.60;;
30818;SDS011;17546;42.674;23.284;2023-05-07T13:51:12;4.25;;;2.63;;
30818;SDS011;17546;42.674;23.284;2023-05-07T13:53:38;3.85;;;2.70;;
30818;SDS011;17546;42.674;23.284;2023-05-07T13:56:03;4.60;;;3.00;;
30818;SDS011;17546;42.674;23.284;2023-05-07T13:58:29;6.20;;;2.67;;
30818;SDS011;17546;42.674;23.284;2023-05-07T14:00:55;5.70;;;2.60;;
30818;SDS011;17546;42.674;23.284;2023-05-07T14:03:20;4.18;;;2.63;;
30818;SDS011;17546;42.674;23.284;2023-05-07T14:05:46;6.47;;;2.95;;
30818;SDS011;17546;42.674;23.284;2023-05-07T14:08:12;7.47;;;3.15;;
30818;SDS011;17546;42.674;23.284;2023-05-07T14:10:38;6.53;;;2.65;;
30818;SDS011;17546;42.674;23.284;2023-05-07T14:13:04;6.85;;;2.95;;
30818;SDS011;17546;42.674;23.284;2023-05-07T14:15:30;4.28;;;2.63;;
30818;SDS011;17546;42.674;23.284;2023-05-07T14:17:57;5.60;;;2.35;;
30818;SDS011;17546;42.674;23.284;2023-05-07T14:20:24;8.00;;;2.63;;
30818;SDS011;17546;42.674;23.284;2023-05-07T14:22:49;7.43;;;3.22;;
30818;SDS011;17546;42.674;23.284;2023-05-07T14:25:15;5.72;;;2.50;;
30818;SDS011;17546;42.674;23.284;2023-05-07T14:27:41;4.30;;;2.80;;
30818;SDS011;17546;42.674;23.284;2023-05-07T14:30:06;8.02;;;2.90;;
30818;SDS011;17546;42.674;23.284;2023-05-07T14:32:32;6.25;;;2.85;;
30818;SDS011;17546;42.674;23.284;2023-05-07T14:34:58;6.18;;;2.67;;
30818;SDS011;17546;42.674;23.284;2023-05-07T14:37:23;10.00;;;2.80;;
30818;SDS011;17546;42.674;23.284;2023-05-07T14:39:49;4.95;;;2.53;;
30818;SDS011;17546;42.674;23.284;2023-05-07T14:42:14;7.40;;;2.58;;